sensor_id;sensor_type;location;lat;lon;timestamp;temperature;humidity
16728;DHT22;8482;54.396;18.590;2023-06-26T00:01:27;18.40;99.90
16728;DHT22;8482;54.396;18.590;2023-06-26T00:04:02;18.30;99.90
16728;DHT22;8482;54.396;18.590;2023-06-26T00:06:28;18.30;99.90
16728;DHT22;8482;54.396;18.590;2023-06-26T00:08:55;18.30;99.90
16728;DHT22;8482;54.396;18.590;2023-06-26T00:11:24;18.20;99.90
16728;DHT22;8482;54.396;18.590;2023-06-26T00:13:50;18.20;99.90
16728;DHT22;8482;54.396;18.590;2023-06-26T00:16:16;18.20;99.90
16728;DHT22;8482;54.396;18.590;2023-06-26T00:18:42;18.20;99.90
16728;DHT22;8482;54.396;18.590;2023-06-26T00:21:09;18.20;99.90
16728;DHT22;8482;54.396;18.590;2023-06-26T00:23:35;18.20;99.90
16728;DHT22;8482;54.396;18.590;2023-06-26T00:26:05;18.20;99.90
16728;DHT22;8482;54.396;18.590;2023-06-26T00:28:31;18.10;99.90
16728;DHT22;8482;54.396;18.590;2023-06-26T00:30:57;18.20;99.90
16728;DHT22;8482;54.396;18.590;2023-06-26T00:33:23;18.10;99.90
16728;DHT22;8482;54.396;18.590;2023-06-26T00:35:48;18.10;99.90
16728;DHT22;8482;54.396;18.590;2023-06-26T00:38:14;18.10;99.90
16728;DHT22;8482;54.396;18.590;2023-06-26T00:40:41;18.10;99.90
16728;DHT22;8482;54.396;18.590;2023-06-26T00:43:07;18.10;99.90
16728;DHT22;8482;54.396;18.590;2023-06-26T00:45:32;18.10;99.90
16728;DHT22;8482;54.396;18.590;2023-06-26T00:47:58;18.10;99.90
16728;DHT22;8482;54.396;18.590;2023-06-26T00:50:24;18.10;99.90
16728;DHT22;8482;54.396;18.590;2023-06-26T00:52:50;18.00;99.90
16728;DHT22;8482;54.396;18.590;2023-06-26T00:55:16;18.00;99.90
16728;DHT22;8482;54.396;18.590;2023-06-26T00:57:42;18.00;99.90
16728;DHT22;8482;54.396;18.590;2023-06-26T01:00:08;18.00;99.90
16728;DHT22;8482;54.396;18.590;2023-06-26T01:02:35;18.00;99.90
16728;DHT22;8482;54.396;18.590;2023-06-26T01:05:05;18.00;99.90
16728;DHT22;8482;54.396;18.590;2023-06-26T01:07:33;17.90;99.90
16728;DHT22;8482;54.396;18.590;2023-06-26T01:10:03;18.00;99.90
16728;DHT22;8482;54.396;18.590;2023-06-26T01:12:32;18.00;99.90
16728;DHT22;8482;54.396;18.590;2023-06-26T01:14:59;18.00;99.90
16728;DHT22;8482;54.396;18.590;2023-06-26T01:17:27;17.90;99.90
16728;DHT22;8482;54.396;18.590;2023-06-26T01:19:59;18.00;99.90
16728;DHT22;8482;54.396;18.590;2023-06-26T01:23:01;18.00;99.90
16728;DHT22;8482;54.396;18.590;2023-06-26T01:25:53;17.90;99.90
16728;DHT22;8482;54.396;18.590;2023-06-26T01:28:28;17.90;99.90
16728;DHT22;8482;54.396;18.590;2023-06-26T01:30:55;17.90;99.90
16728;DHT22;8482;54.396;18.590;2023-06-26T01:33:22;17.90;99.90
16728;DHT22;8482;54.396;18.590;2023-06-26T01:35:48;17.90;99.90
16728;DHT22;8482;54.396;18.590;2023-06-26T01:38:18;17.90;99.90
16728;DHT22;8482;54.396;18.590;2023-06-26T01:40:45;17.90;99.90
16728;DHT22;8482;54.396;18.590;2023-06-26T01:43:36;17.80;99.90
16728;DHT22;8482;54.396;18.590;2023-06-26T01:46:15;17.90;99.90
16728;DHT22;8482;54.396;18.590;2023-06-26T01:55:32;17.80;99.90
16728;DHT22;8482;54.396;18.590;2023-06-26T01:58:09;17.70;99.90
16728;DHT22;8482;54.396;18.590;2023-06-26T02:00:36;17.70;99.90
16728;DHT22;8482;54.396;18.590;2023-06-26T02:03:03;17.70;99.90
16728;DHT22;8482;54.396;18.590;2023-06-26T02:05:30;17.60;99.90
16728;DHT22;8482;54.396;18.590;2023-06-26T02:07:56;17.60;99.90
16728;DHT22;8482;54.396;18.590;2023-06-26T02:10:22;17.60;99.90
16728;DHT22;8482;54.396;18.590;2023-06-26T02:12:48;17.60;99.90
16728;DHT22;8482;54.396;18.590;2023-06-26T02:15:14;17.60;99.90
16728;DHT22;8482;54.396;18.590;2023-06-26T02:17:40;17.50;99.90
16728;DHT22;8482;54.396;18.590;2023-06-26T02:20:06;17.50;99.90
16728;DHT22;8482;54.396;18.590;2023-06-26T02:22:34;17.50;99.90
16728;DHT22;8482;54.396;18.590;2023-06-26T02:25:00;17.50;99.90
16728;DHT22;8482;54.396;18.590;2023-06-26T02:27:26;17.50;99.90
16728;DHT22;8482;54.396;18.590;2023-06-26T02:29:52;17.50;99.90
16728;DHT22;8482;54.396;18.590;2023-06-26T02:32:18;17.50;99.90
16728;DHT22;8482;54.396;18.590;2023-06-26T02:34:44;17.50;99.90
16728;DHT22;8482;54.396;18.590;2023-06-26T02:37:10;17.40;99.90
16728;DHT22;8482;54.396;18.590;2023-06-26T02:39:35;17.40;99.90
16728;DHT22;8482;54.396;18.590;2023-06-26T02:42:02;17.40;99.90
16728;DHT22;8482;54.396;18.590;2023-06-26T02:44:28;17.40;99.90
16728;DHT22;8482;54.396;18.590;2023-06-26T02:46:54;17.40;99.90
16728;DHT22;8482;54.396;18.590;2023-06-26T02:49:20;17.40;99.90
16728;DHT22;8482;54.396;18.590;2023-06-26T02:51:46;17.40;99.90
16728;DHT22;8482;54.396;18.590;2023-06-26T02:54:12;17.40;99.90
16728;DHT22;8482;54.396;18.590;2023-06-26T02:56:38;17.40;99.90
16728;DHT22;8482;54.396;18.590;2023-06-26T02:59:04;17.30;99.90
16728;DHT22;8482;54.396;18.590;2023-06-26T03:01:30;17.40;99.90
16728;DHT22;8482;54.396;18.590;2023-06-26T03:03:55;17.40;99.90
16728;DHT22;8482;54.396;18.590;2023-06-26T03:06:21;17.40;99.90
16728;DHT22;8482;54.396;18.590;2023-06-26T03:08:47;17.40;99.90
16728;DHT22;8482;54.396;18.590;2023-06-26T03:11:13;17.40;99.90
16728;DHT22;8482;54.396;18.590;2023-06-26T03:13:39;17.40;99.90
16728;DHT22;8482;54.396;18.590;2023-06-26T03:16:05;17.40;99.90
16728;DHT22;8482;54.396;18.590;2023-06-26T03:18:31;17.50;99.90
16728;DHT22;8482;54.396;18.590;2023-06-26T03:20:56;17.50;99.90
16728;DHT22;8482;54.396;18.590;2023-06-26T03:23:23;17.50;99.90
16728;DHT22;8482;54.396;18.590;2023-06-26T03:25:50;17.50;99.90
16728;DHT22;8482;54.396;18.590;2023-06-26T03:28:16;17.50;99.90
16728;DHT22;8482;54.396;18.590;2023-06-26T03:30:43;17.50;99.90
16728;DHT22;8482;54.396;18.590;2023-06-26T03:33:08;17.60;99.90
16728;DHT22;8482;54.396;18.590;2023-06-26T03:35:34;17.60;99.90
16728;DHT22;8482;54.396;18.590;2023-06-26T03:38:01;17.70;99.90
16728;DHT22;8482;54.396;18.590;2023-06-26T03:40:27;17.60;99.90
16728;DHT22;8482;54.396;18.590;2023-06-26T03:42:53;17.60;99.90
16728;DHT22;8482;54.396;18.590;2023-06-26T03:45:19;17.70;99.90
16728;DHT22;8482;54.396;18.590;2023-06-26T03:47:45;17.70;99.90
16728;DHT22;8482;54.396;18.590;2023-06-26T03:50:18;17.80;99.90
16728;DHT22;8482;54.396;18.590;2023-06-26T03:52:44;17.80;99.90
16728;DHT22;8482;54.396;18.590;2023-06-26T03:55:11;17.80;99.90
16728;DHT22;8482;54.396;18.590;2023-06-26T03:57:37;17.90;99.90
16728;DHT22;8482;54.396;18.590;2023-06-26T04:00:04;17.90;99.90
16728;DHT22;8482;54.396;18.590;2023-06-26T04:02:34;17.90;99.90
16728;DHT22;8482;54.396;18.590;2023-06-26T04:05:01;17.90;99.90
16728;DHT22;8482;54.396;18.590;2023-06-26T04:07:29;17.90;99.90
16728;DHT22;8482;54.396;18.590;2023-06-26T04:09:55;18.00;99.90
16728;DHT22;8482;54.396;18.590;2023-06-26T04:12:21;18.00;99.90
16728;DHT22;8482;54.396;18.590;2023-06-26T04:14:46;18.10;99.90
16728;DHT22;8482;54.396;18.590;2023-06-26T04:17:12;18.10;99.90
16728;DHT22;8482;54.396;18.590;2023-06-26T04:19:38;18.20;99.90
16728;DHT22;8482;54.396;18.590;2023-06-26T04:22:04;18.20;99.90
16728;DHT22;8482;54.396;18.590;2023-06-26T04:24:30;18.30;99.90
16728;DHT22;8482;54.396;18.590;2023-06-26T04:26:56;18.40;99.90
16728;DHT22;8482;54.396;18.590;2023-06-26T04:29:23;18.40;99.90
16728;DHT22;8482;54.396;18.590;2023-06-26T04:31:51;18.50;99.90
16728;DHT22;8482;54.396;18.590;2023-06-26T04:34:17;18.50;99.90
16728;DHT22;8482;54.396;18.590;2023-06-26T04:36:43;18.60;99.90
16728;DHT22;8482;54.396;18.590;2023-06-26T04:39:14;18.70;99.90
16728;DHT22;8482;54.396;18.590;2023-06-26T04:41:42;18.80;99.90
16728;DHT22;8482;54.396;18.590;2023-06-26T04:44:09;18.80;99.90
16728;DHT22;8482;54.396;18.590;2023-06-26T04:46:35;18.90;99.90
16728;DHT22;8482;54.396;18.590;2023-06-26T04:49:01;18.90;99.90
16728;DHT22;8482;54.396;18.590;2023-06-26T04:51:28;19.00;99.90
16728;DHT22;8482;54.396;18.590;2023-06-26T04:53:54;19.10;99.90
16728;DHT22;8482;54.396;18.590;2023-06-26T04:56:20;19.10;99.90
16728;DHT22;8482;54.396;18.590;2023-06-26T04:58:46;19.20;99.90
16728;DHT22;8482;54.396;18.590;2023-06-26T05:01:12;19.30;99.90
16728;DHT22;8482;54.396;18.590;2023-06-26T05:03:39;19.30;99.90
16728;DHT22;8482;54.396;18.590;2023-06-26T05:06:05;19.40;99.90
16728;DHT22;8482;54.396;18.590;2023-06-26T05:08:31;19.50;99.90
16728;DHT22;8482;54.396;18.590;2023-06-26T05:10:57;19.50;99.90
16728;DHT22;8482;54.396;18.590;2023-06-26T05:13:24;19.60;99.90
16728;DHT22;8482;54.396;18.590;2023-06-26T05:15:52;19.60;99.90
16728;DHT22;8482;54.396;18.590;2023-06-26T05:18:18;19.70;99.90
16728;DHT22;8482;54.396;18.590;2023-06-26T05:20:45;19.70;99.90
16728;DHT22;8482;54.396;18.590;2023-06-26T05:23:11;19.80;99.90
16728;DHT22;8482;54.396;18.590;2023-06-26T05:25:38;19.80;99.90
16728;DHT22;8482;54.396;18.590;2023-06-26T05:28:05;19.90;99.90
16728;DHT22;8482;54.396;18.590;2023-06-26T05:30:34;20.00;99.90
16728;DHT22;8482;54.396;18.590;2023-06-26T05:33:01;20.00;99.90
16728;DHT22;8482;54.396;18.590;2023-06-26T05:35:29;20.10;99.90
16728;DHT22;8482;54.396;18.590;2023-06-26T05:37:57;20.20;99.90
16728;DHT22;8482;54.396;18.590;2023-06-26T05:40:24;20.20;99.90
16728;DHT22;8482;54.396;18.590;2023-06-26T05:42:51;20.30;99.90
16728;DHT22;8482;54.396;18.590;2023-06-26T05:45:17;20.40;99.90
16728;DHT22;8482;54.396;18.590;2023-06-26T05:47:43;20.40;99.90
16728;DHT22;8482;54.396;18.590;2023-06-26T05:50:10;20.50;99.90
16728;DHT22;8482;54.396;18.590;2023-06-26T05:52:36;20.60;99.90
16728;DHT22;8482;54.396;18.590;2023-06-26T05:55:04;20.60;99.50
16728;DHT22;8482;54.396;18.590;2023-06-26T05:57:31;20.70;99.10
16728;DHT22;8482;54.396;18.590;2023-06-26T05:59:57;20.70;98.90
16728;DHT22;8482;54.396;18.590;2023-06-26T06:02:23;20.80;99.10
16728;DHT22;8482;54.396;18.590;2023-06-26T06:04:49;20.80;99.30
16728;DHT22;8482;54.396;18.590;2023-06-26T06:07:15;20.90;99.80
16728;DHT22;8482;54.396;18.590;2023-06-26T06:09:41;21.00;99.50
16728;DHT22;8482;54.396;18.590;2023-06-26T06:12:07;21.00;99.40
16728;DHT22;8482;54.396;18.590;2023-06-26T06:14:34;21.00;99.00
16728;DHT22;8482;54.396;18.590;2023-06-26T06:17:01;21.10;99.00
16728;DHT22;8482;54.396;18.590;2023-06-26T06:19:27;21.10;99.00
16728;DHT22;8482;54.396;18.590;2023-06-26T06:21:53;21.20;99.10
16728;DHT22;8482;54.396;18.590;2023-06-26T06:24:19;21.20;99.10
16728;DHT22;8482;54.396;18.590;2023-06-26T06:26:46;21.30;99.20
16728;DHT22;8482;54.396;18.590;2023-06-26T06:29:12;21.30;99.40
16728;DHT22;8482;54.396;18.590;2023-06-26T06:31:37;21.40;99.80
16728;DHT22;8482;54.396;18.590;2023-06-26T06:34:03;21.40;99.90
16728;DHT22;8482;54.396;18.590;2023-06-26T06:36:29;21.40;99.90
16728;DHT22;8482;54.396;18.590;2023-06-26T06:38:55;21.50;99.90
16728;DHT22;8482;54.396;18.590;2023-06-26T06:41:21;21.50;99.90
16728;DHT22;8482;54.396;18.590;2023-06-26T06:43:47;21.50;99.90
16728;DHT22;8482;54.396;18.590;2023-06-26T06:46:12;21.60;99.90
16728;DHT22;8482;54.396;18.590;2023-06-26T06:48:38;21.70;99.90
16728;DHT22;8482;54.396;18.590;2023-06-26T06:51:04;21.70;99.90
16728;DHT22;8482;54.396;18.590;2023-06-26T06:53:31;21.70;99.90
16728;DHT22;8482;54.396;18.590;2023-06-26T06:55:57;21.80;99.90
16728;DHT22;8482;54.396;18.590;2023-06-26T06:58:23;21.80;99.90
16728;DHT22;8482;54.396;18.590;2023-06-26T07:00:49;21.90;99.90
16728;DHT22;8482;54.396;18.590;2023-06-26T07:03:17;21.90;99.90
16728;DHT22;8482;54.396;18.590;2023-06-26T07:05:43;21.90;99.90
16728;DHT22;8482;54.396;18.590;2023-06-26T07:08:09;22.00;99.90
16728;DHT22;8482;54.396;18.590;2023-06-26T07:10:35;22.00;99.90
16728;DHT22;8482;54.396;18.590;2023-06-26T07:13:01;22.10;99.90
16728;DHT22;8482;54.396;18.590;2023-06-26T07:15:27;22.10;99.90
16728;DHT22;8482;54.396;18.590;2023-06-26T07:17:53;22.10;99.90
16728;DHT22;8482;54.396;18.590;2023-06-26T07:20:19;22.20;99.90
16728;DHT22;8482;54.396;18.590;2023-06-26T07:22:45;22.20;99.90
16728;DHT22;8482;54.396;18.590;2023-06-26T07:25:12;22.20;99.90
16728;DHT22;8482;54.396;18.590;2023-06-26T07:27:39;22.30;99.90
16728;DHT22;8482;54.396;18.590;2023-06-26T07:30:07;22.30;99.90
16728;DHT22;8482;54.396;18.590;2023-06-26T07:32:36;22.40;99.90
16728;DHT22;8482;54.396;18.590;2023-06-26T07:35:03;22.40;99.90
16728;DHT22;8482;54.396;18.590;2023-06-26T07:37:29;22.40;99.90
16728;DHT22;8482;54.396;18.590;2023-06-26T07:39:55;22.50;99.90
16728;DHT22;8482;54.396;18.590;2023-06-26T07:42:21;22.40;99.90
16728;DHT22;8482;54.396;18.590;2023-06-26T07:44:47;22.50;99.90
16728;DHT22;8482;54.396;18.590;2023-06-26T07:47:13;22.60;99.90
16728;DHT22;8482;54.396;18.590;2023-06-26T07:49:39;22.60;99.90
16728;DHT22;8482;54.396;18.590;2023-06-26T07:52:06;22.60;99.90
16728;DHT22;8482;54.396;18.590;2023-06-26T07:54:32;22.70;99.90
16728;DHT22;8482;54.396;18.590;2023-06-26T07:57:02;22.80;99.90
16728;DHT22;8482;54.396;18.590;2023-06-26T07:59:32;22.80;99.90
16728;DHT22;8482;54.396;18.590;2023-06-26T08:01:59;22.90;99.90
16728;DHT22;8482;54.396;18.590;2023-06-26T08:04:26;22.90;99.90
16728;DHT22;8482;54.396;18.590;2023-06-26T08:06:55;22.90;99.90
16728;DHT22;8482;54.396;18.590;2023-06-26T08:09:23;22.90;99.90
16728;DHT22;8482;54.396;18.590;2023-06-26T08:11:51;23.00;99.90
16728;DHT22;8482;54.396;18.590;2023-06-26T08:14:17;23.00;99.90
16728;DHT22;8482;54.396;18.590;2023-06-26T08:16:43;23.10;99.90
16728;DHT22;8482;54.396;18.590;2023-06-26T08:19:12;23.10;99.90
16728;DHT22;8482;54.396;18.590;2023-06-26T08:21:43;23.10;99.90
16728;DHT22;8482;54.396;18.590;2023-06-26T08:24:10;23.20;99.90
16728;DHT22;8482;54.396;18.590;2023-06-26T08:26:38;23.20;99.70
16728;DHT22;8482;54.396;18.590;2023-06-26T08:29:05;23.30;99.50
16728;DHT22;8482;54.396;18.590;2023-06-26T08:31:37;23.30;99.30
16728;DHT22;8482;54.396;18.590;2023-06-26T08:34:04;23.40;99.20
16728;DHT22;8482;54.396;18.590;2023-06-26T08:36:30;23.50;99.10
16728;DHT22;8482;54.396;18.590;2023-06-26T08:38:57;23.50;98.80
16728;DHT22;8482;54.396;18.590;2023-06-26T08:41:23;23.60;98.50
16728;DHT22;8482;54.396;18.590;2023-06-26T08:43:50;23.60;98.20
16728;DHT22;8482;54.396;18.590;2023-06-26T08:46:18;23.60;98.00
16728;DHT22;8482;54.396;18.590;2023-06-26T08:49:09;23.70;97.80
16728;DHT22;8482;54.396;18.590;2023-06-26T08:52:02;23.70;97.40
16728;DHT22;8482;54.396;18.590;2023-06-26T08:54:36;23.80;97.20
16728;DHT22;8482;54.396;18.590;2023-06-26T08:57:07;23.80;96.90
16728;DHT22;8482;54.396;18.590;2023-06-26T08:59:33;23.90;96.60
16728;DHT22;8482;54.396;18.590;2023-06-26T09:01:59;23.90;96.00
16728;DHT22;8482;54.396;18.590;2023-06-26T09:04:25;24.00;95.50
16728;DHT22;8482;54.396;18.590;2023-06-26T09:06:52;24.00;95.10
16728;DHT22;8482;54.396;18.590;2023-06-26T09:09:17;24.00;94.60
16728;DHT22;8482;54.396;18.590;2023-06-26T09:11:43;24.00;94.30
16728;DHT22;8482;54.396;18.590;2023-06-26T09:14:09;24.10;94.00
16728;DHT22;8482;54.396;18.590;2023-06-26T09:16:42;24.10;93.40
16728;DHT22;8482;54.396;18.590;2023-06-26T09:19:11;24.10;92.80
16728;DHT22;8482;54.396;18.590;2023-06-26T09:21:42;24.20;92.40
16728;DHT22;8482;54.396;18.590;2023-06-26T09:24:09;24.20;92.10
16728;DHT22;8482;54.396;18.590;2023-06-26T09:26:37;24.20;91.60
16728;DHT22;8482;54.396;18.590;2023-06-26T09:29:05;24.20;91.20
16728;DHT22;8482;54.396;18.590;2023-06-26T09:31:33;24.30;90.70
16728;DHT22;8482;54.396;18.590;2023-06-26T09:34:01;24.30;90.50
16728;DHT22;8482;54.396;18.590;2023-06-26T09:36:32;24.40;90.10
16728;DHT22;8482;54.396;18.590;2023-06-26T09:39:03;24.40;89.30
16728;DHT22;8482;54.396;18.590;2023-06-26T09:41:45;24.50;88.30
16728;DHT22;8482;54.396;18.590;2023-06-26T09:44:13;24.50;87.50
16728;DHT22;8482;54.396;18.590;2023-06-26T09:46:39;24.50;86.40
16728;DHT22;8482;54.396;18.590;2023-06-26T09:49:10;24.50;85.70
16728;DHT22;8482;54.396;18.590;2023-06-26T09:51:38;24.50;84.40
16728;DHT22;8482;54.396;18.590;2023-06-26T09:54:07;24.50;83.70
16728;DHT22;8482;54.396;18.590;2023-06-26T09:56:34;24.50;83.70
16728;DHT22;8482;54.396;18.590;2023-06-26T09:59:02;24.50;83.60
16728;DHT22;8482;54.396;18.590;2023-06-26T10:01:30;24.60;83.50
16728;DHT22;8482;54.396;18.590;2023-06-26T10:03:57;24.70;83.20
16728;DHT22;8482;54.396;18.590;2023-06-26T10:06:33;24.70;81.90
16728;DHT22;8482;54.396;18.590;2023-06-26T10:09:02;24.80;80.10
16728;DHT22;8482;54.396;18.590;2023-06-26T10:11:41;24.80;78.90
16728;DHT22;8482;54.396;18.590;2023-06-26T10:14:11;24.90;78.40
16728;DHT22;8482;54.396;18.590;2023-06-26T10:16:40;25.00;77.50
16728;DHT22;8482;54.396;18.590;2023-06-26T10:19:10;25.10;76.90
16728;DHT22;8482;54.396;18.590;2023-06-26T10:21:39;25.20;77.50
16728;DHT22;8482;54.396;18.590;2023-06-26T10:24:07;25.20;77.70
16728;DHT22;8482;54.396;18.590;2023-06-26T10:26:42;25.30;77.30
16728;DHT22;8482;54.396;18.590;2023-06-26T10:29:12;25.40;77.00
16728;DHT22;8482;54.396;18.590;2023-06-26T10:31:43;25.50;76.50
16728;DHT22;8482;54.396;18.590;2023-06-26T10:34:12;25.60;75.90
16728;DHT22;8482;54.396;18.590;2023-06-26T10:36:38;25.60;75.00
16728;DHT22;8482;54.396;18.590;2023-06-26T10:39:05;25.70;74.30
16728;DHT22;8482;54.396;18.590;2023-06-26T10:41:41;25.70;73.60
16728;DHT22;8482;54.396;18.590;2023-06-26T10:44:17;25.80;73.90
16728;DHT22;8482;54.396;18.590;2023-06-26T10:46:51;25.80;73.40
16728;DHT22;8482;54.396;18.590;2023-06-26T10:49:20;25.90;72.90
16728;DHT22;8482;54.396;18.590;2023-06-26T10:51:48;25.90;71.20
16728;DHT22;8482;54.396;18.590;2023-06-26T10:54:16;25.90;70.60
16728;DHT22;8482;54.396;18.590;2023-06-26T10:56:47;25.90;71.20
16728;DHT22;8482;54.396;18.590;2023-06-26T10:59:18;26.00;71.30
16728;DHT22;8482;54.396;18.590;2023-06-26T11:01:59;26.00;71.40
16728;DHT22;8482;54.396;18.590;2023-06-26T11:04:46;26.00;71.00
16728;DHT22;8482;54.396;18.590;2023-06-26T11:07:24;26.10;70.70
16728;DHT22;8482;54.396;18.590;2023-06-26T11:10:02;26.20;71.40
16728;DHT22;8482;54.396;18.590;2023-06-26T11:12:42;26.30;71.30
16728;DHT22;8482;54.396;18.590;2023-06-26T11:15:10;26.30;71.30
16728;DHT22;8482;54.396;18.590;2023-06-26T11:17:38;26.40;71.50
16728;DHT22;8482;54.396;18.590;2023-06-26T11:20:06;26.50;71.10
16728;DHT22;8482;54.396;18.590;2023-06-26T11:22:36;26.50;70.70
16728;DHT22;8482;54.396;18.590;2023-06-26T11:25:04;26.60;70.90
16728;DHT22;8482;54.396;18.590;2023-06-26T11:27:40;26.60;71.30
16728;DHT22;8482;54.396;18.590;2023-06-26T11:30:08;26.70;70.60
16728;DHT22;8482;54.396;18.590;2023-06-26T11:32:39;26.80;70.00
16728;DHT22;8482;54.396;18.590;2023-06-26T11:35:05;26.80;69.40
16728;DHT22;8482;54.396;18.590;2023-06-26T11:37:32;26.80;69.20
16728;DHT22;8482;54.396;18.590;2023-06-26T11:39:59;26.90;68.60
16728;DHT22;8482;54.396;18.590;2023-06-26T11:42:25;27.00;67.30
16728;DHT22;8482;54.396;18.590;2023-06-26T11:44:52;27.00;66.70
16728;DHT22;8482;54.396;18.590;2023-06-26T11:47:20;27.00;66.40
16728;DHT22;8482;54.396;18.590;2023-06-26T11:49:47;27.10;66.20
16728;DHT22;8482;54.396;18.590;2023-06-26T11:52:15;27.20;65.20
16728;DHT22;8482;54.396;18.590;2023-06-26T11:54:42;27.20;65.00
16728;DHT22;8482;54.396;18.590;2023-06-26T11:57:14;27.30;64.80
16728;DHT22;8482;54.396;18.590;2023-06-26T11:59:41;27.40;64.70
16728;DHT22;8482;54.396;18.590;2023-06-26T12:02:11;27.40;64.40
16728;DHT22;8482;54.396;18.590;2023-06-26T12:04:44;27.40;64.50
16728;DHT22;8482;54.396;18.590;2023-06-26T12:07:12;27.40;64.50
16728;DHT22;8482;54.396;18.590;2023-06-26T12:09:41;27.50;64.50
16728;DHT22;8482;54.396;18.590;2023-06-26T12:12:10;27.60;64.10
16728;DHT22;8482;54.396;18.590;2023-06-26T12:14:37;27.60;64.40
16728;DHT22;8482;54.396;18.590;2023-06-26T12:17:11;27.70;64.80
16728;DHT22;8482;54.396;18.590;2023-06-26T12:19:42;27.80;64.60
16728;DHT22;8482;54.396;18.590;2023-06-26T12:22:13;27.90;64.00
16728;DHT22;8482;54.396;18.590;2023-06-26T12:24:40;27.90;63.50
16728;DHT22;8482;54.396;18.590;2023-06-26T12:27:10;28.00;63.30
16728;DHT22;8482;54.396;18.590;2023-06-26T12:29:38;28.10;62.80
16728;DHT22;8482;54.396;18.590;2023-06-26T12:32:10;28.10;61.90
16728;DHT22;8482;54.396;18.590;2023-06-26T12:34:38;28.20;61.80
16728;DHT22;8482;54.396;18.590;2023-06-26T12:37:06;28.20;61.80
16728;DHT22;8482;54.396;18.590;2023-06-26T12:39:46;28.40;62.20
16728;DHT22;8482;54.396;18.590;2023-06-26T12:42:28;28.50;61.90
16728;DHT22;8482;54.396;18.590;2023-06-26T12:44:54;28.50;61.00
16728;DHT22;8482;54.396;18.590;2023-06-26T12:47:27;28.60;60.60
16728;DHT22;8482;54.396;18.590;2023-06-26T12:49:56;28.80;60.50
16728;DHT22;8482;54.396;18.590;2023-06-26T12:52:23;28.80;60.10
16728;DHT22;8482;54.396;18.590;2023-06-26T12:54:53;28.90;59.90
16728;DHT22;8482;54.396;18.590;2023-06-26T12:57:21;29.00;59.80
16728;DHT22;8482;54.396;18.590;2023-06-26T12:59:47;29.10;60.10
16728;DHT22;8482;54.396;18.590;2023-06-26T13:02:13;29.10;60.10
16728;DHT22;8482;54.396;18.590;2023-06-26T13:04:39;29.20;60.10
16728;DHT22;8482;54.396;18.590;2023-06-26T13:07:07;29.20;59.80
16728;DHT22;8482;54.396;18.590;2023-06-26T13:09:34;29.30;59.70
16728;DHT22;8482;54.396;18.590;2023-06-26T13:12:01;29.30;59.80
16728;DHT22;8482;54.396;18.590;2023-06-26T13:14:30;29.40;59.80
16728;DHT22;8482;54.396;18.590;2023-06-26T13:16:57;29.40;60.20
16728;DHT22;8482;54.396;18.590;2023-06-26T13:19:22;29.40;59.50
16728;DHT22;8482;54.396;18.590;2023-06-26T13:21:48;29.30;60.50
16728;DHT22;8482;54.396;18.590;2023-06-26T13:24:14;29.40;60.90
16728;DHT22;8482;54.396;18.590;2023-06-26T13:26:41;29.40;61.30
16728;DHT22;8482;54.396;18.590;2023-06-26T13:29:07;29.30;61.60
16728;DHT22;8482;54.396;18.590;2023-06-26T13:31:33;29.30;62.50
16728;DHT22;8482;54.396;18.590;2023-06-26T13:33:59;29.20;63.80
16728;DHT22;8482;54.396;18.590;2023-06-26T13:36:25;29.30;63.80
16728;DHT22;8482;54.396;18.590;2023-06-26T13:38:52;29.20;62.60
16728;DHT22;8482;54.396;18.590;2023-06-26T13:41:24;29.20;62.40
16728;DHT22;8482;54.396;18.590;2023-06-26T13:43:51;29.10;62.10
16728;DHT22;8482;54.396;18.590;2023-06-26T13:46:17;29.00;62.10
16728;DHT22;8482;54.396;18.590;2023-06-26T13:48:44;29.10;63.30
16728;DHT22;8482;54.396;18.590;2023-06-26T13:51:11;29.20;64.00
16728;DHT22;8482;54.396;18.590;2023-06-26T13:53:37;29.20;63.90
16728;DHT22;8482;54.396;18.590;2023-06-26T13:56:03;29.30;64.10
16728;DHT22;8482;54.396;18.590;2023-06-26T13:58:29;29.30;63.50
16728;DHT22;8482;54.396;18.590;2023-06-26T14:00:57;29.30;63.40
16728;DHT22;8482;54.396;18.590;2023-06-26T14:03:24;29.30;63.30
16728;DHT22;8482;54.396;18.590;2023-06-26T14:05:51;29.40;63.00
16728;DHT22;8482;54.396;18.590;2023-06-26T14:08:17;29.30;62.20
16728;DHT22;8482;54.396;18.590;2023-06-26T14:10:43;29.40;61.70
16728;DHT22;8482;54.396;18.590;2023-06-26T14:13:09;29.40;61.60
16728;DHT22;8482;54.396;18.590;2023-06-26T14:15:37;29.50;61.50
16728;DHT22;8482;54.396;18.590;2023-06-26T14:18:04;29.60;60.90
16728;DHT22;8482;54.396;18.590;2023-06-26T14:20:30;29.70;60.90
16728;DHT22;8482;54.396;18.590;2023-06-26T14:22:58;29.80;60.70
16728;DHT22;8482;54.396;18.590;2023-06-26T14:25:24;29.90;60.90
16728;DHT22;8482;54.396;18.590;2023-06-26T14:27:51;29.90;60.90
16728;DHT22;8482;54.396;18.590;2023-06-26T14:30:17;30.00;60.50
16728;DHT22;8482;54.396;18.590;2023-06-26T14:32:43;30.00;59.90
16728;DHT22;8482;54.396;18.590;2023-06-26T14:35:09;30.00;59.40
16728;DHT22;8482;54.396;18.590;2023-06-26T14:37:36;30.10;59.50
16728;DHT22;8482;54.396;18.590;2023-06-26T14:40:06;30.20;59.20
16728;DHT22;8482;54.396;18.590;2023-06-26T14:42:32;30.40;59.00
16728;DHT22;8482;54.396;18.590;2023-06-26T14:44:58;30.40;58.10
16728;DHT22;8482;54.396;18.590;2023-06-26T14:47:24;30.40;57.90
16728;DHT22;8482;54.396;18.590;2023-06-26T14:49:50;30.40;57.90
16728;DHT22;8482;54.396;18.590;2023-06-26T14:52:15;30.50;58.20
16728;DHT22;8482;54.396;18.590;2023-06-26T14:54:41;30.60;58.10
16728;DHT22;8482;54.396;18.590;2023-06-26T14:57:07;30.70;57.30
16728;DHT22;8482;54.396;18.590;2023-06-26T14:59:33;30.90;56.80
16728;DHT22;8482;54.396;18.590;2023-06-26T15:01:59;31.00;57.00
16728;DHT22;8482;54.396;18.590;2023-06-26T15:04:25;31.30;58.10
16728;DHT22;8482;54.396;18.590;2023-06-26T15:06:52;31.40;58.00
16728;DHT22;8482;54.396;18.590;2023-06-26T15:09:18;31.70;58.20
16728;DHT22;8482;54.396;18.590;2023-06-26T15:11:44;31.90;57.60
16728;DHT22;8482;54.396;18.590;2023-06-26T15:14:10;32.10;56.60
16728;DHT22;8482;54.396;18.590;2023-06-26T15:16:36;32.20;55.40
16728;DHT22;8482;54.396;18.590;2023-06-26T15:19:02;32.40;55.20
16728;DHT22;8482;54.396;18.590;2023-06-26T15:21:27;32.70;55.10
16728;DHT22;8482;54.396;18.590;2023-06-26T15:23:53;32.90;54.50
16728;DHT22;8482;54.396;18.590;2023-06-26T15:26:19;33.20;54.20
16728;DHT22;8482;54.396;18.590;2023-06-26T15:28:45;33.50;54.00
16728;DHT22;8482;54.396;18.590;2023-06-26T15:31:10;33.80;53.70
16728;DHT22;8482;54.396;18.590;2023-06-26T15:33:36;34.10;53.50
16728;DHT22;8482;54.396;18.590;2023-06-26T15:36:03;34.50;53.10
16728;DHT22;8482;54.396;18.590;2023-06-26T15:38:30;34.80;53.10
16728;DHT22;8482;54.396;18.590;2023-06-26T15:40:56;35.00;52.30